createdAt,value
2017-12-19T00:01:47.982Z,101956.40
2017-12-19T00:04:17.222Z,101947.25
2017-12-19T00:06:47.640Z,101945.08
2017-12-19T00:09:16.909Z,101954.22
2017-12-19T00:11:46.502Z,101953.30
2017-12-19T00:14:16.029Z,101958.06
2017-12-19T00:16:45.375Z,101955.90
2017-12-19T00:19:14.685Z,101971.53
2017-12-19T00:21:44.124Z,101971.53
2017-12-19T00:24:14.189Z,101967.20
2017-12-19T00:26:43.879Z,101958.91
2017-12-19T00:29:13.203Z,101954.98
2017-12-19T00:31:42.508Z,101956.30
2017-12-19T00:34:12.035Z,101966.33
2017-12-19T00:36:41.304Z,101973.70
2017-12-19T00:39:12.174Z,101981.52
2017-12-19T00:41:41.823Z,101981.09
2017-12-19T00:44:11.034Z,101981.53
2017-12-19T00:46:40.395Z,101992.80
2017-12-19T00:49:09.921Z,101991.95
2017-12-19T00:51:39.156Z,101998.02
2017-12-19T00:54:08.475Z,101999.30
2017-12-19T00:56:38.029Z,102016.24
2017-12-19T00:59:09.747Z,102027.94
2017-12-19T01:01:38.975Z,102014.52
2017-12-19T01:04:08.572Z,102014.48
2017-12-19T01:06:37.885Z,102013.61
2017-12-19T01:09:07.130Z,102011.02
2017-12-19T01:11:36.944Z,102018.38
2017-12-19T01:14:06.489Z,102029.66
2017-12-19T01:16:36.244Z,102024.45
2017-12-19T01:19:05.971Z,102021.85
2017-12-19T01:21:35.224Z,102016.20
2017-12-19T01:24:06.426Z,102020.09
2017-12-19T01:26:36.074Z,102022.72
2017-12-19T01:29:05.290Z,102028.82
2017-12-19T01:31:34.661Z,102037.91
2017-12-19T01:34:06.332Z,102037.47
2017-12-19T01:36:35.570Z,102043.98
2017-12-19T01:39:05.234Z,102048.36
2017-12-19T01:41:34.797Z,102053.58
2017-12-19T01:44:05.295Z,102058.36
2017-12-19T01:46:34.499Z,102063.53
2017-12-19T01:49:06.255Z,102070.06
2017-12-19T01:51:35.538Z,102067.00
2017-12-19T01:54:05.672Z,102067.86
2017-12-19T01:56:35.247Z,102065.27
2017-12-19T01:59:04.739Z,102061.77
2017-12-19T02:01:34.012Z,102066.56
2017-12-19T02:04:05.615Z,102071.79
2017-12-19T02:06:35.759Z,102075.70
2017-12-19T02:09:06.023Z,102078.73
2017-12-19T02:11:35.590Z,102083.92
2017-12-19T02:14:06.754Z,102072.66
2017-12-19T02:16:36.090Z,102071.78
2017-12-19T02:19:05.830Z,102074.84
2017-12-19T02:21:35.185Z,102086.99
2017-12-19T02:24:06.613Z,102092.59
2017-12-19T02:26:36.244Z,102090.87
2017-12-19T02:29:05.612Z,102101.72
2017-12-19T02:31:35.025Z,102114.33
2017-12-19T02:34:05.493Z,102104.32
2017-12-19T02:36:34.870Z,102100.43
2017-12-19T02:39:04.740Z,102116.05
2017-12-19T02:41:34.346Z,102115.61
2017-12-19T02:44:05.265Z,102118.64
2017-12-19T02:46:34.758Z,102116.47
2017-12-19T02:49:04.865Z,102112.56
2017-12-19T02:51:34.189Z,102118.23
2017-12-19T02:54:04.108Z,102119.97
2017-12-19T02:56:33.763Z,102113.44
2017-12-19T02:59:03.319Z,102114.75
2017-12-19T03:01:32.795Z,102117.38
2017-12-19T03:04:04.069Z,102124.73
2017-12-19T03:06:33.375Z,102115.64
2017-12-19T03:09:03.158Z,102112.15
2017-12-19T03:11:32.858Z,102106.52
2017-12-19T03:14:12.302Z,102103.92
2017-12-19T03:16:44.205Z,102099.58
2017-12-19T03:19:18.571Z,102106.52
2017-12-19T03:21:55.543Z,102114.78
2017-12-19T03:24:29.954Z,102116.48
2017-12-19T03:26:59.713Z,102114.77
2017-12-19T03:29:32.091Z,102123.45
2017-12-19T03:32:04.585Z,102123.45
2017-12-19T03:34:34.397Z,102124.75
2017-12-19T03:37:04.296Z,102121.72
2017-12-19T03:39:34.467Z,102120.41
2017-12-19T03:42:05.750Z,102109.56
2017-12-19T03:44:35.152Z,102115.65
2017-12-19T03:47:05.040Z,102121.27
2017-12-19T03:49:34.395Z,102123.00
2017-12-19T03:52:04.751Z,102120.84
2017-12-19T03:54:34.354Z,102129.06
2017-12-19T03:57:03.894Z,102121.27
2017-12-19T03:59:33.544Z,102113.93
2017-12-19T04:02:04.264Z,102119.56
2017-12-19T04:04:33.567Z,102116.50
2017-12-19T04:07:04.178Z,102116.94
2017-12-19T04:09:33.777Z,102110.41
2017-12-19T04:12:04.119Z,102126.46
2017-12-19T04:14:33.500Z,102129.09
2017-12-19T04:17:03.296Z,102133.41
2017-12-19T04:19:32.554Z,102130.82
2017-12-19T04:22:03.071Z,102130.39
2017-12-19T04:24:32.714Z,102137.33
2017-12-19T04:27:02.359Z,102142.51
2017-12-19T04:29:31.671Z,102141.65
2017-12-19T04:32:15.699Z,102136.45
2017-12-19T04:34:45.828Z,102143.39
2017-12-19T04:37:15.412Z,102149.03
2017-12-19T04:39:44.787Z,102151.21
2017-12-19T04:42:14.054Z,102156.83
2017-12-19T04:44:43.664Z,102170.30
2017-12-19T04:47:12.948Z,102161.19
2017-12-19T04:49:42.237Z,102167.27
2017-12-19T04:52:11.795Z,102167.72
2017-12-19T04:54:41.034Z,102169.00
2017-12-19T04:57:10.328Z,102171.59
2017-12-19T04:59:39.848Z,102176.39
2017-12-19T05:02:09.131Z,102179.42
2017-12-19T05:04:38.374Z,102175.06
2017-12-19T05:07:07.894Z,102180.27
2017-12-19T05:09:37.207Z,102189.83
2017-12-19T05:12:07.316Z,102189.38
2017-12-19T05:14:36.617Z,102198.50
2017-12-19T05:17:05.941Z,102209.77
2017-12-19T05:19:35.476Z,102216.72
2017-12-19T05:22:05.624Z,102228.86
2017-12-19T05:24:34.916Z,102231.02
2017-12-19T05:27:04.707Z,102232.78
2017-12-19T05:29:33.981Z,102236.24
2017-12-19T05:32:05.004Z,102226.71
2017-12-19T05:34:34.225Z,102235.84
2017-12-19T05:37:03.762Z,102246.25
2017-12-19T05:39:33.382Z,102241.02
2017-12-19T05:42:03.551Z,102236.27
2017-12-19T05:44:32.886Z,102239.70
2017-12-19T05:47:03.240Z,102235.81
2017-12-19T05:49:32.736Z,102249.27
2017-12-19T05:52:04.101Z,102247.97
2017-12-19T05:54:33.408Z,102246.23
2017-12-19T05:57:03.402Z,102251.02
2017-12-19T05:59:32.942Z,102258.36
2017-12-19T06:02:03.236Z,102260.11
2017-12-19T06:04:32.547Z,102263.59
2017-12-19T06:07:02.257Z,102267.48
2017-12-19T06:09:31.858Z,102264.02
2017-12-19T06:12:02.100Z,102263.14
2017-12-19T06:14:31.719Z,102266.19
2017-12-19T06:17:01.240Z,102267.50
2017-12-19T06:19:30.968Z,102271.84
2017-12-19T06:22:00.278Z,102274.00
2017-12-19T06:24:29.545Z,102273.15
2017-12-19T06:26:59.171Z,102270.55
2017-12-19T06:29:28.461Z,102266.63
2017-12-19T06:31:57.838Z,102267.06
2017-12-19T06:34:27.131Z,102276.18
2017-12-19T06:36:56.448Z,102274.02
2017-12-19T06:39:26.041Z,102272.26
2017-12-19T06:41:55.312Z,102281.83
2017-12-19T06:44:24.626Z,102279.20
2017-12-19T06:46:55.214Z,102275.30
2017-12-19T06:49:24.475Z,102277.46
2017-12-19T06:51:53.803Z,102278.34
2017-12-19T06:54:23.182Z,102280.53
2017-12-19T06:56:52.971Z,102285.72
2017-12-19T06:59:22.642Z,102281.81
2017-12-19T07:01:51.983Z,102277.48
2017-12-19T07:04:21.304Z,102280.49
2017-12-19T07:06:51.920Z,102283.98
2017-12-19T07:09:21.349Z,102283.55
2017-12-19T07:11:50.623Z,102292.67
2017-12-19T07:14:20.010Z,102303.95
2017-12-19T07:16:50.168Z,102291.37
2017-12-19T07:19:19.677Z,102293.53
2017-12-19T07:21:49.096Z,102297.43
2017-12-19T07:24:18.771Z,102295.69
2017-12-19T07:26:48.475Z,102295.27
2017-12-19T07:29:17.853Z,102307.44
2017-12-19T07:31:47.238Z,102318.27
2017-12-19T07:34:16.579Z,102320.42
2017-12-19T07:36:45.989Z,102313.94
2017-12-19T07:39:15.566Z,102315.66
2017-12-19T07:41:45.032Z,102316.55
2017-12-19T07:44:14.397Z,102319.13
2017-12-19T07:46:44.010Z,102317.84
2017-12-19T07:49:13.371Z,102320.86
2017-12-19T07:51:42.621Z,102324.79
2017-12-19T07:54:12.503Z,102334.34
2017-12-19T07:56:41.763Z,102339.11
2017-12-19T07:59:11.091Z,102347.36
2017-12-19T08:01:40.650Z,102347.34
2017-12-19T08:04:09.941Z,102350.80
2017-12-19T08:06:39.162Z,102353.44
2017-12-19T08:09:08.849Z,102351.25
2017-12-19T08:11:38.156Z,102347.31
2017-12-19T08:14:07.937Z,102351.24
2017-12-19T08:16:37.788Z,102349.92
2017-12-19T08:19:07.128Z,102349.50
2017-12-19T08:21:36.431Z,102352.13
2017-12-19T08:24:07.507Z,102356.88
2017-12-19T08:26:36.883Z,102361.23
2017-12-19T08:29:06.397Z,102367.73
2017-12-19T08:31:35.953Z,102373.36
2017-12-19T08:34:06.477Z,102374.23
2017-12-19T08:36:35.778Z,102379.05
2017-12-19T08:39:05.626Z,102383.83
2017-12-19T08:41:34.864Z,102391.20
2017-12-19T08:44:05.227Z,102390.75
2017-12-19T08:46:34.807Z,102379.89
2017-12-19T08:49:06.097Z,102387.27
2017-12-19T08:51:35.550Z,102399.41
2017-12-19T08:54:07.130Z,102409.84
2017-12-19T08:56:36.909Z,102404.18
2017-12-19T08:59:06.764Z,102409.83
2017-12-19T09:01:36.364Z,102408.12
2017-12-19T09:04:07.034Z,102405.08
2017-12-19T09:06:36.295Z,102420.73
2017-12-19T09:09:06.621Z,102430.31
2017-12-19T09:11:35.882Z,102425.50
2017-12-19T09:14:06.907Z,102428.52
2017-12-19T09:16:36.461Z,102431.14
2017-12-19T09:19:06.044Z,102441.13
2017-12-19T09:21:35.327Z,102451.14
2017-12-19T09:24:05.822Z,102434.17
2017-12-19T09:26:36.706Z,102426.77
2017-12-19T09:29:06.015Z,102426.29
2017-12-19T09:31:35.563Z,102418.88
2017-12-19T09:34:06.200Z,102433.27
2017-12-19T09:36:35.429Z,102434.55
2017-12-19T09:39:05.810Z,102427.15
2017-12-19T09:41:35.067Z,102434.55
2017-12-19T09:44:06.262Z,102437.63
2017-12-19T09:46:35.781Z,102431.96
2017-12-19T09:49:06.588Z,102427.57
2017-12-19T09:51:35.834Z,102443.66
2017-12-19T09:54:05.974Z,102445.82
2017-12-19T09:56:35.215Z,102445.41
2017-12-19T09:59:05.148Z,102452.80
2017-12-19T10:01:34.723Z,102462.36
2017-12-19T10:04:05.315Z,102461.05
2017-12-19T10:06:35.514Z,102454.07
2017-12-19T10:09:06.027Z,102470.62
2017-12-19T10:11:35.534Z,102485.38
2017-12-19T10:14:07.350Z,102484.52
2017-12-19T10:16:36.911Z,102488.02
2017-12-19T10:19:06.851Z,102470.27
2017-12-19T10:21:36.313Z,102458.94
2017-12-19T10:24:06.908Z,102461.50
2017-12-19T10:26:36.277Z,102459.77
2017-12-19T10:29:05.735Z,102455.42
2017-12-19T10:31:35.376Z,102453.66
2017-12-19T10:34:05.968Z,102452.34
2017-12-19T10:36:35.453Z,102451.92
2017-12-19T10:39:06.035Z,102447.59
2017-12-19T10:41:35.443Z,102450.16
2017-12-19T10:44:06.890Z,102448.89
2017-12-19T10:46:36.458Z,102448.81
2017-12-19T10:49:05.803Z,102445.36
2017-12-19T10:51:35.440Z,102459.33
2017-12-19T10:54:06.640Z,102456.77
2017-12-19T10:56:36.020Z,102458.91
2017-12-19T10:59:05.737Z,102460.59
2017-12-19T11:01:35.012Z,102459.27
2017-12-19T11:04:05.168Z,102457.16
2017-12-19T11:06:34.400Z,102464.15
2017-12-19T11:09:04.279Z,102464.55
2017-12-19T11:11:33.847Z,102461.93
2017-12-19T11:14:04.137Z,102461.02
2017-12-19T11:16:33.434Z,102452.41
2017-12-19T11:19:03.635Z,102460.23
2017-12-19T11:21:32.919Z,102462.80
2017-12-19T11:24:04.111Z,102453.67
2017-12-19T11:26:33.543Z,102458.02
2017-12-19T11:29:03.273Z,102448.01
2017-12-19T11:31:34.256Z,102452.80
2017-12-19T11:34:05.092Z,102456.70
2017-12-19T11:36:34.433Z,102439.70
2017-12-19T11:39:04.836Z,102437.07
2017-12-19T11:41:34.124Z,102431.84
2017-12-19T11:44:06.052Z,102437.39
2017-12-19T11:46:35.314Z,102442.02
2017-12-19T11:49:06.029Z,102441.53
2017-12-19T11:51:35.573Z,102425.41
2017-12-19T11:54:05.667Z,102409.10
2017-12-19T11:56:34.874Z,102418.86
2017-12-19T11:59:04.873Z,102409.75
2017-12-19T12:01:34.215Z,102415.11
2017-12-19T12:04:04.463Z,102409.37
2017-12-19T12:06:33.719Z,102400.88
2017-12-19T12:09:03.366Z,102412.38
2017-12-19T12:11:33.152Z,102405.39
2017-12-19T12:14:03.997Z,102401.68
2017-12-19T12:16:33.339Z,102392.00
2017-12-19T12:19:03.823Z,102382.05
2017-12-19T12:21:33.066Z,102379.30
2017-12-19T12:24:04.040Z,102385.36
2017-12-19T12:26:33.298Z,102397.07
2017-12-19T12:29:03.497Z,102402.64
2017-12-19T12:31:33.447Z,102402.64
2017-12-19T12:36:39.669Z,102400.60
2017-12-19T12:39:10.554Z,102402.53
2017-12-19T12:41:39.785Z,102411.12
2017-12-19T12:44:09.056Z,102408.28
2017-12-19T12:46:38.669Z,102397.70
2017-12-19T12:49:07.940Z,102403.37
2017-12-19T12:51:37.199Z,102410.28
2017-12-19T12:54:07.055Z,102405.91
2017-12-19T12:56:36.500Z,102409.10
2017-12-19T12:59:05.755Z,102416.08
2017-12-19T13:01:35.600Z,102413.98
2017-12-19T13:04:06.232Z,102405.58
2017-12-19T13:06:35.530Z,102406.41
2017-12-19T13:09:06.261Z,102411.18
2017-12-19T13:11:35.651Z,102405.78
2017-12-19T13:14:06.106Z,102407.28
2017-12-19T13:16:35.719Z,102398.50
2017-12-19T13:19:05.360Z,102401.52
2017-12-19T13:21:34.664Z,102400.63
2017-12-19T13:24:05.494Z,102401.77
2017-12-19T13:26:34.726Z,102398.64
2017-12-19T13:29:04.459Z,102402.08
2017-12-19T13:31:33.967Z,102402.59
2017-12-19T13:34:04.320Z,102403.04
2017-12-19T13:36:33.574Z,102405.58
2017-12-19T13:39:05.071Z,102410.83
2017-12-19T13:41:34.540Z,102410.81
2017-12-19T13:44:06.033Z,102405.97
2017-12-19T13:46:35.622Z,102412.56
2017-12-19T13:49:05.690Z,102412.77
2017-12-19T13:51:34.902Z,102416.70
2017-12-19T13:54:05.376Z,102423.17
2017-12-19T13:56:34.602Z,102427.45
2017-12-19T13:59:04.489Z,102424.06
2017-12-19T14:01:34.050Z,102414.91
2017-12-19T14:06:41.521Z,102414.56
2017-12-19T14:09:10.994Z,102419.41
2017-12-19T14:11:40.307Z,102422.87
2017-12-19T14:14:09.892Z,102421.99
2017-12-19T14:16:40.166Z,102418.52
2017-12-19T14:19:10.026Z,102411.97
2017-12-19T14:21:39.549Z,102408.05
2017-12-19T14:24:08.893Z,102412.37
2017-12-19T14:26:38.161Z,102416.34
2017-12-19T14:29:07.720Z,102423.30
2017-12-19T14:31:36.975Z,102426.79
2017-12-19T14:34:06.907Z,102417.17
2017-12-19T14:36:36.459Z,102415.44
2017-12-19T14:39:06.338Z,102414.98
2017-12-19T14:41:35.596Z,102406.23
2017-12-19T14:44:06.572Z,102412.84
2017-12-19T14:46:35.819Z,102409.85
2017-12-19T14:49:05.578Z,102415.06
2017-12-19T14:51:35.163Z,102417.23
2017-12-19T14:54:06.023Z,102417.22
2017-12-19T14:56:37.614Z,102416.75
2017-12-19T14:59:08.385Z,102414.13
2017-12-19T15:01:37.623Z,102411.95
2017-12-19T15:04:06.876Z,102410.66
2017-12-19T15:06:36.376Z,102411.09
2017-12-19T15:09:06.403Z,102403.69
2017-12-19T15:11:35.658Z,102403.25
2017-12-19T15:14:06.908Z,102402.41
2017-12-19T15:16:36.421Z,102415.47
2017-12-19T15:19:05.759Z,102412.03
2017-12-19T15:21:35.341Z,102412.91
2017-12-19T15:24:05.862Z,102405.98
2017-12-19T15:26:35.138Z,102408.12
2017-12-19T15:29:04.775Z,102403.76
2017-12-19T15:31:33.997Z,102397.66
2017-12-19T15:34:05.655Z,102388.11
2017-12-19T15:36:34.999Z,102386.44
2017-12-19T15:39:05.035Z,102392.95
2017-12-19T15:41:34.558Z,102388.16
2017-12-19T15:44:06.029Z,102395.97
2017-12-19T15:46:35.457Z,102389.48
2017-12-19T15:49:05.734Z,102383.81
2017-12-19T15:51:35.378Z,102387.68
2017-12-19T15:54:05.406Z,102397.69
2017-12-19T15:56:35.008Z,102404.22
2017-12-19T15:59:05.479Z,102402.93
2017-12-19T16:01:34.788Z,102410.75
2017-12-19T16:04:07.233Z,102414.66
2017-12-19T16:06:36.664Z,102419.44
2017-12-19T16:09:06.952Z,102419.87
2017-12-19T16:11:36.319Z,102418.56
2017-12-19T16:14:06.308Z,102417.72
2017-12-19T16:16:35.899Z,102413.36
2017-12-19T16:19:08.984Z,102414.64
2017-12-19T16:21:38.273Z,102412.90
2017-12-19T16:24:08.338Z,102412.92
2017-12-19T16:26:37.762Z,102412.06
2017-12-19T16:29:07.016Z,102409.89
2017-12-19T16:31:36.817Z,102411.64
2017-12-19T16:34:06.050Z,102409.03
2017-12-19T16:36:35.281Z,102422.05
2017-12-19T16:39:06.042Z,102418.99
2017-12-19T16:41:35.263Z,102416.82
2017-12-19T16:44:06.474Z,102413.77
2017-12-19T16:46:35.700Z,102417.69
2017-12-19T16:49:05.877Z,102422.05
2017-12-19T16:51:35.480Z,102428.12
2017-12-19T16:54:06.251Z,102427.67
2017-12-19T16:56:35.509Z,102428.12
2017-12-19T16:59:05.747Z,102429.00
2017-12-19T17:01:34.998Z,102438.11
2017-12-19T17:04:07.312Z,102433.35
2017-12-19T17:06:36.871Z,102431.16
2017-12-19T17:09:07.571Z,102432.03
2017-12-19T17:11:36.927Z,102438.56
2017-12-19T17:14:07.039Z,102437.70
2017-12-19T17:16:36.251Z,102442.02
2017-12-19T17:19:05.579Z,102439.40
2017-12-19T17:21:34.888Z,102438.09
2017-12-19T17:24:06.128Z,102440.73
2017-12-19T17:26:35.619Z,102443.33
2017-12-19T17:29:05.519Z,102448.56
2017-12-19T17:31:35.100Z,102450.72
2017-12-19T17:34:05.503Z,102445.94
2017-12-19T17:36:34.760Z,102446.81
2017-12-19T17:39:04.308Z,102450.30
2017-12-19T17:41:33.918Z,102447.69
2017-12-19T17:44:04.542Z,102441.60
2017-12-19T17:46:33.753Z,102449.84
2017-12-19T17:49:04.255Z,102444.66
2017-12-19T17:51:35.347Z,102451.59
2017-12-19T17:54:05.886Z,102456.81
2017-12-19T17:56:35.462Z,102455.51
2017-12-19T17:59:05.218Z,102458.10
2017-12-19T18:01:34.502Z,102460.27
2017-12-19T18:04:04.688Z,102463.30
2017-12-19T18:06:34.309Z,102465.91
2017-12-19T18:09:05.442Z,102463.31
2017-12-19T18:11:34.656Z,102458.53
2017-12-19T18:14:07.294Z,102454.21
2017-12-19T18:16:36.832Z,102455.95
2017-12-19T18:19:06.134Z,102457.67
2017-12-19T18:21:35.444Z,102458.97
2017-12-19T18:24:06.363Z,102458.55
2017-12-19T18:26:35.622Z,102462.88
2017-12-19T18:29:05.811Z,102467.23
2017-12-19T18:31:35.109Z,102455.07
2017-12-19T18:34:05.916Z,102458.55
2017-12-19T18:36:35.426Z,102456.81
2017-12-19T18:39:06.311Z,102455.07
2017-12-19T18:41:35.692Z,102451.16
2017-12-19T18:44:07.500Z,102447.69
2017-12-19T18:46:37.313Z,102461.59
2017-12-19T18:49:10.713Z,102454.20
2017-12-19T18:51:40.483Z,102453.33
2017-12-19T18:54:30.059Z,102448.54
2017-12-19T18:57:00.941Z,102446.36
2017-12-19T18:59:33.092Z,102450.72
2017-12-19T19:02:05.345Z,102451.14
2017-12-19T19:04:38.080Z,102453.75
2017-12-19T19:07:11.108Z,102459.84
2017-12-19T19:09:43.387Z,102450.72
2017-12-19T19:12:14.331Z,102459.39
2017-12-19T19:14:44.027Z,102457.23
2017-12-19T19:17:14.594Z,102454.63
2017-12-19T19:22:35.628Z,102453.32
2017-12-19T19:25:06.429Z,102447.24
2017-12-19T19:27:36.185Z,102443.36
2017-12-19T19:30:06.919Z,102451.59
2017-12-19T19:32:36.314Z,102449.41
2017-12-19T19:35:07.145Z,102453.75
2017-12-19T19:37:39.481Z,102448.53
2017-12-19T19:40:09.080Z,102452.00
2017-12-19T19:42:40.199Z,102456.33
2017-12-19T19:45:11.457Z,102453.75
2017-12-19T19:47:40.691Z,102448.12
2017-12-19T19:50:09.952Z,102440.73
2017-12-19T19:52:39.602Z,102452.02
2017-12-19T19:55:10.357Z,102448.10
2017-12-19T19:57:39.606Z,102452.89
2017-12-19T20:00:09.112Z,102448.97
2017-12-19T20:02:38.454Z,102455.05
2017-12-19T20:05:07.716Z,102458.55
2017-12-19T20:07:37.249Z,102460.27
2017-12-19T20:10:06.592Z,102451.17
2017-12-19T20:12:35.811Z,102457.22
2017-12-19T20:15:05.447Z,102455.50
2017-12-19T20:17:35.108Z,102455.47
2017-12-19T20:20:06.733Z,102455.50
2017-12-19T20:22:36.286Z,102450.73
2017-12-19T20:25:06.050Z,102449.41
2017-12-19T20:27:35.310Z,102453.31
2017-12-19T20:30:05.845Z,102445.94
2017-12-19T20:32:35.106Z,102449.83
2017-12-19T20:35:05.118Z,102446.38
2017-12-19T20:37:34.664Z,102447.22
2017-12-19T20:40:04.910Z,102448.95
2017-12-19T20:42:34.118Z,102446.38
2017-12-19T20:45:03.965Z,102449.39
2017-12-19T20:47:33.203Z,102446.33
2017-12-19T20:50:04.683Z,102445.47
2017-12-19T20:52:34.094Z,102445.05
2017-12-19T20:55:04.566Z,102444.61
2017-12-19T20:57:34.104Z,102444.61
2017-12-19T21:00:04.459Z,102445.50
2017-12-19T21:02:33.656Z,102439.41
2017-12-19T21:05:04.482Z,102447.24
2017-12-19T21:07:33.745Z,102443.31
2017-12-19T21:10:03.821Z,102448.09
2017-12-19T21:12:33.319Z,102444.18
2017-12-19T21:15:03.388Z,102442.02
2017-12-19T21:17:32.739Z,102440.28
2017-12-19T21:20:03.704Z,102444.18
2017-12-19T21:22:32.961Z,102444.19
2017-12-19T21:25:02.381Z,102442.87
2017-12-19T21:27:32.234Z,102433.33
2017-12-19T21:30:02.268Z,102430.72
2017-12-19T21:32:31.590Z,102427.25
2017-12-19T21:35:01.485Z,102421.62
2017-12-19T21:37:30.739Z,102425.52
2017-12-19T21:40:02.331Z,102420.28
2017-12-19T21:42:31.905Z,102416.41
2017-12-19T21:45:01.790Z,102415.09
2017-12-19T21:47:31.312Z,102420.73
2017-12-19T21:50:00.696Z,102423.79
2017-12-19T21:52:29.936Z,102423.77
2017-12-19T21:55:00.171Z,102415.06
2017-12-19T21:57:29.514Z,102412.48
2017-12-19T21:59:59.941Z,102412.91
2017-12-19T22:02:29.739Z,102405.53
2017-12-19T22:04:58.978Z,102411.62
2017-12-19T22:07:28.218Z,102415.52
2017-12-19T22:09:57.739Z,102413.34
2017-12-19T22:12:26.963Z,102415.09
2017-12-19T22:14:56.190Z,102415.09
2017-12-19T22:17:25.585Z,102414.64
2017-12-19T22:19:54.863Z,102409.02
2017-12-19T22:22:24.500Z,102410.30
2017-12-19T22:24:53.841Z,102405.95
2017-12-19T22:27:23.129Z,102404.23
2017-12-19T22:29:53.212Z,102405.52
2017-12-19T22:32:22.426Z,102405.52
2017-12-19T22:35:02.985Z,102414.66
2017-12-19T22:37:32.781Z,102415.95
2017-12-19T22:40:03.441Z,102418.09
2017-12-19T22:42:32.783Z,102421.15
2017-12-19T22:45:03.817Z,102419.01
2017-12-19T22:47:33.113Z,102415.52
2017-12-19T22:50:04.543Z,102423.36
2017-12-19T22:52:33.795Z,102419.44
2017-12-19T22:55:03.317Z,102425.08
2017-12-19T22:57:32.877Z,102428.96
2017-12-19T23:00:02.896Z,102430.70
2017-12-19T23:02:32.139Z,102434.16
2017-12-19T23:05:03.223Z,102432.45
2017-12-19T23:07:32.457Z,102429.00
2017-12-19T23:10:04.703Z,102432.45
2017-12-19T23:12:34.242Z,102438.96
2017-12-19T23:15:03.743Z,102440.73
2017-12-19T23:17:33.039Z,102440.29
2017-12-19T23:20:04.392Z,102436.81
2017-12-19T23:22:33.884Z,102429.42
2017-12-19T23:25:03.615Z,102424.66
2017-12-19T23:27:32.880Z,102423.33
2017-12-19T23:30:03.521Z,102424.20
2017-12-19T23:32:33.015Z,102423.34
2017-12-19T23:35:02.557Z,102415.52
2017-12-19T23:37:31.791Z,102402.95
2017-12-19T23:40:03.778Z,102399.02
2017-12-19T23:42:33.419Z,102396.42
2017-12-19T23:45:03.757Z,102401.19
2017-12-19T23:47:33.244Z,102395.55
2017-12-19T23:50:03.286Z,102394.70
2017-12-19T23:52:32.531Z,102385.98
2017-12-19T23:55:03.089Z,102392.49
2017-12-19T23:57:32.292Z,102388.60
